Terminal Aerodrome Forecast
Issued by NWS Twin Cities, MN

Home | Current Version | Previous Version | Text Only | Print | Product List | Glossary Off
Versions: 1 2 3 4 5 6 7 8 9 10 11 12 13 14 15 16 17 18 19 20 21 22 23 24 25

000
FTUS43 KMPX 181500 AAA
TAFEAU
TAF AMD
KEAU 181510Z 1815/1912 18006KT P6SM BKN015 OVC020
     FM181800 19007KT P6SM VCSH BKN028
      TEMPO 1822/1902 2SM +TSRA BKN016CB
     FM190200 18004KT 4SM BR OVC030
     FM190600 22003KT 3SM BR OVC010
      TEMPO 1908/1912 1SM BR OVC003=

USA.gov is the U.S. government's official web portal to all federal, state and local government web resources and services.